Time;durP1;ratioP1;P1;durP2;ratioP2;P2;SDS_P1;SDS_P2;PMS_P1;PMS_P2;Temp;Humidity;BMP_temperature;BMP_pressure;BME280_temperature;BME280_humidity;BME280_pressure;Samples;Min_cycle;Max_cycle;Signal;HPM_P1;HPM_P2
2021/11/23 00:01:38;;;;;;;4.70;2.63;;;5.70;99.90;;;;;;5035239;28;20045;-73
2021/11/23 00:04:04;;;;;;;9.70;3.50;;;5.90;99.90;;;;;;5035658;28;20083;-75
2021/11/23 00:06:34;;;;;;;5.63;2.88;;;5.80;99.90;;;;;;5034944;28;20060;-74
2021/11/23 00:09:00;;;;;;;6.70;3.30;;;5.60;99.90;;;;;;5035292;28;20132;-73
2021/11/23 00:11:26;;;;;;;6.78;3.30;;;5.60;99.90;;;;;;5035541;28;20479;-75
2021/11/23 00:13:52;;;;;;;8.00;4.25;;;5.60;99.90;;;;;;5035226;28;20024;-75
2021/11/23 00:16:18;;;;;;;6.47;3.17;;;5.60;99.90;;;;;;5035417;28;20032;-73
2021/11/23 00:18:45;;;;;;;6.78;2.92;;;5.50;99.90;;;;;;5035139;28;20087;-74
2021/11/23 00:21:11;;;;;;;6.95;3.15;;;5.50;99.90;;;;;;5035364;28;20025;-74
2021/11/23 00:23:37;;;;;;;5.72;2.80;;;5.50;99.90;;;;;;5035042;28;20432;-75
2021/11/23 00:26:02;;;;;;;9.50;3.50;;;5.50;99.90;;;;;;5035045;28;20025;-74
2021/11/23 00:28:28;;;;;;;6.10;3.17;;;5.40;99.90;;;;;;5034961;28;20048;-75
2021/11/23 00:30:54;;;;;;;5.60;3.03;;;5.10;99.90;;;;;;5034915;28;20026;-74
2021/11/23 00:33:20;;;;;;;6.30;3.03;;;5.20;99.90;;;;;;5034862;28;20028;-73
2021/11/23 00:35:45;;;;;;;7.93;2.83;;;5.20;99.90;;;;;;5034785;28;20029;-74
2021/11/23 00:38:11;;;;;;;7.22;3.42;;;5.10;99.90;;;;;;5034741;28;20024;-74
2021/11/23 00:40:37;;;;;;;8.95;3.40;;;4.90;99.90;;;;;;5034657;28;20368;-75
2021/11/23 00:43:04;;;;;;;7.68;2.67;;;5.00;99.90;;;;;;5034704;28;20152;-74
2021/11/23 00:45:31;;;;;;;6.32;2.80;;;5.10;99.90;;;;;;5034652;28;20052;-74
2021/11/23 00:47:57;;;;;;;8.07;2.90;;;5.10;99.90;;;;;;5034465;28;20491;-74
2021/11/23 00:50:23;;;;;;;8.68;3.30;;;5.00;99.90;;;;;;5034494;28;20037;-73
2021/11/23 00:52:48;;;;;;;3.80;2.50;;;5.00;99.90;;;;;;5034503;28;20024;-75
2021/11/23 00:55:14;;;;;;;6.45;3.10;;;4.90;99.90;;;;;;5034657;28;20025;-74
2021/11/23 00:57:40;;;;;;;8.88;3.20;;;5.10;99.90;;;;;;5034299;28;20013;-72
2021/11/23 01:00:08;;;;;;;6.55;3.15;;;5.00;99.90;;;;;;5034326;28;20042;-72
2021/11/23 01:02:34;;;;;;;9.43;3.67;;;4.80;99.90;;;;;;5034257;28;20036;-75
2021/11/23 01:05:00;;;;;;;7.65;3.20;;;4.60;99.90;;;;;;5034314;28;20026;-72
2021/11/23 01:07:25;;;;;;;6.43;2.90;;;4.40;99.90;;;;;;5034162;28;20017;-75
2021/11/23 01:09:51;;;;;;;5.43;2.58;;;4.50;99.90;;;;;;5034304;28;20037;-75
2021/11/23 01:12:17;;;;;;;5.55;2.53;;;4.60;99.90;;;;;;5034108;28;20498;-75
2021/11/23 01:14:44;;;;;;;5.28;2.47;;;4.70;99.90;;;;;;5034311;28;20364;-75
2021/11/23 01:17:09;;;;;;;7.88;3.03;;;4.80;99.90;;;;;;5033983;28;20101;-72
2021/11/23 01:19:35;;;;;;;6.22;2.72;;;4.70;99.90;;;;;;5033226;28;20061;-73
2021/11/23 01:22:01;;;;;;;7.40;2.70;;;4.50;99.90;;;;;;5033871;28;20091;-75
2021/11/23 01:24:27;;;;;;;6.78;2.72;;;4.40;99.90;;;;;;5033905;28;20021;-74
2021/11/23 01:26:52;;;;;;;7.13;2.67;;;4.30;99.90;;;;;;5033790;28;20035;-73
2021/11/23 01:29:18;;;;;;;9.07;3.03;;;4.20;99.90;;;;;;5033754;28;20538;-74
2021/11/23 01:31:44;;;;;;;8.73;2.58;;;4.20;99.90;;;;;;5034070;28;20018;-74
2021/11/23 01:34:09;;;;;;;6.78;2.72;;;4.40;99.90;;;;;;5033762;28;20052;-73
2021/11/23 01:36:35;;;;;;;9.07;2.85;;;4.30;99.90;;;;;;5033696;28;20391;-72
2021/11/23 01:39:01;;;;;;;7.05;2.53;;;4.50;99.90;;;;;;5033634;28;20094;-73
2021/11/23 01:41:27;;;;;;;7.20;2.60;;;4.50;99.90;;;;;;5033577;28;20025;-72
2021/11/23 01:43:52;;;;;;;5.93;2.42;;;4.80;99.90;;;;;;5033782;28;20030;-72
2021/11/23 01:46:18;;;;;;;7.60;2.42;;;4.90;99.90;;;;;;5034059;28;20017;-72
2021/11/23 01:48:44;;;;;;;6.53;2.38;;;5.10;99.90;;;;;;5033660;28;20113;-74
2021/11/23 01:51:10;;;;;;;6.28;2.90;;;5.20;99.90;;;;;;5033444;28;20073;-73
2021/11/23 01:53:36;;;;;;;5.93;2.58;;;5.30;99.90;;;;;;5033407;28;20479;-73
2021/11/23 01:56:02;;;;;;;4.78;2.53;;;5.30;99.90;;;;;;5033365;28;20028;-75
2021/11/23 01:58:28;;;;;;;6.32;2.28;;;5.20;99.90;;;;;;5033852;28;20043;-73
2021/11/23 02:00:54;;;;;;;6.10;2.53;;;5.20;99.90;;;;;;5033172;28;20568;-75
2021/11/23 02:03:20;;;;;;;7.57;3.83;;;5.20;99.90;;;;;;5033308;28;20025;-73
2021/11/23 02:05:47;;;;;;;3.92;2.47;;;5.10;99.90;;;;;;5033860;28;20041;-74
2021/11/23 02:08:13;;;;;;;6.18;2.40;;;5.20;99.90;;;;;;5033243;28;20451;-73
2021/11/23 02:10:40;;;;;;;6.60;2.92;;;5.20;99.90;;;;;;5033550;28;20029;-74
2021/11/23 02:13:07;;;;;;;6.47;2.92;;;5.20;99.90;;;;;;5033220;28;20025;-74
2021/11/23 02:15:33;;;;;;;8.23;2.85;;;5.10;99.90;;;;;;5033469;28;20028;-72
2021/11/23 02:17:58;;;;;;;6.90;2.45;;;5.10;99.90;;;;;;5033121;28;20395;-74
2021/11/23 02:20:24;;;;;;;5.72;2.83;;;5.10;99.90;;;;;;5033172;28;20095;-75
2021/11/23 02:22:51;;;;;;;6.75;2.58;;;5.10;99.90;;;;;;5032969;28;20099;-73
2021/11/23 02:25:18;;;;;;;9.15;3.17;;;5.10;99.90;;;;;;5033057;28;20096;-73
2021/11/23 02:27:46;;;;;;;10.52;2.90;;;4.80;99.90;;;;;;5032966;28;20025;-72
2021/11/23 02:30:12;;;;;;;5.28;2.55;;;5.00;99.90;;;;;;5035519;28;20025;-73
2021/11/23 02:32:52;;;;;;;5.75;2.50;;;5.10;99.90;;;;;;5037652;28;20018;-74
2021/11/23 02:35:23;;;;;;;7.68;3.22;;;5.20;99.90;;;;;;5037385;28;20488;-75
2021/11/23 02:37:52;;;;;;;6.78;2.92;;;5.20;99.90;;;;;;5037036;28;20036;-73
2021/11/23 02:40:19;;;;;;;5.05;2.67;;;5.20;99.90;;;;;;5037033;28;20018;-72
2021/11/23 02:42:46;;;;;;;9.65;3.08;;;5.30;99.90;;;;;;5036893;28;20025;-74
2021/11/23 02:45:13;;;;;;;5.30;2.63;;;5.30;99.90;;;;;;5036874;28;20029;-74
2021/11/23 02:47:39;;;;;;;5.78;2.83;;;5.30;99.90;;;;;;5037026;28;20025;-75
2021/11/23 02:50:08;;;;;;;6.20;2.88;;;5.30;99.90;;;;;;5037093;28;20155;-72
2021/11/23 02:52:33;;;;;;;9.63;3.20;;;5.20;99.90;;;;;;5036986;28;20479;-74
2021/11/23 02:55:03;;;;;;;5.75;2.63;;;5.20;99.90;;;;;;5036689;28;20075;-72
2021/11/23 02:57:31;;;;;;;9.33;2.93;;;5.30;99.90;;;;;;5036627;28;20472;-74
2021/11/23 02:59:57;;;;;;;6.88;3.30;;;5.20;99.90;;;;;;5036396;28;20028;-74
2021/11/23 03:02:22;;;;;;;7.93;3.17;;;5.20;99.90;;;;;;5036632;28;20026;-75
2021/11/23 03:04:56;;;;;;;8.80;3.25;;;5.20;99.90;;;;;;5037081;28;20044;-74
2021/11/23 03:07:23;;;;;;;8.00;3.55;;;5.00;99.90;;;;;;5036491;28;20030;-74
2021/11/23 03:09:49;;;;;;;6.55;3.10;;;5.10;99.90;;;;;;5036326;28;20034;-72
2021/11/23 03:12:18;;;;;;;9.30;3.40;;;4.80;99.90;;;;;;5036340;28;20018;-73
2021/11/23 03:14:44;;;;;;;7.80;3.40;;;4.80;99.90;;;;;;5036369;28;20487;-74
2021/11/23 03:17:11;;;;;;;7.63;3.33;;;4.70;99.90;;;;;;5036245;28;20438;-73
2021/11/23 03:19:37;;;;;;;9.60;3.45;;;4.70;99.90;;;;;;5036214;28;20021;-74
2021/11/23 03:22:03;;;;;;;7.00;3.28;;;4.60;99.90;;;;;;5036696;28;20036;-72
2021/11/23 03:24:29;;;;;;;10.70;4.13;;;4.30;99.90;;;;;;5036130;28;20041;-74
2021/11/23 03:26:56;;;;;;;10.93;3.35;;;4.30;99.90;;;;;;5036603;28;20049;-72
2021/11/23 03:29:22;;;;;;;8.65;3.28;;;4.40;99.90;;;;;;5035987;28;20026;-73
2021/11/23 03:31:47;;;;;;;6.72;3.10;;;4.50;99.90;;;;;;5036038;28;20082;-73
2021/11/23 03:34:14;;;;;;;12.60;3.70;;;4.40;99.90;;;;;;5035950;28;20555;-74
2021/11/23 03:36:40;;;;;;;8.38;3.67;;;4.30;99.90;;;;;;5035992;28;20021;-74
2021/11/23 03:39:07;;;;;;;10.45;4.93;;;4.10;99.90;;;;;;5035886;28;20395;-73
2021/11/23 03:41:34;;;;;;;8.60;3.80;;;4.20;99.90;;;;;;5034979;28;20600;-73
2021/11/23 03:44:00;;;;;;;7.88;4.10;;;4.10;99.90;;;;;;5035771;28;20034;-73
2021/11/23 03:46:25;;;;;;;10.32;3.70;;;4.00;99.90;;;;;;5035787;28;20531;-72
2021/11/23 03:48:52;;;;;;;8.40;3.95;;;4.00;99.90;;;;;;5036166;28;20025;-76
2021/11/23 03:51:19;;;;;;;8.57;3.85;;;3.90;99.90;;;;;;5035933;28;20026;-74
2021/11/23 03:53:44;;;;;;;10.05;3.70;;;3.90;99.90;;;;;;5035914;28;20482;-73
2021/11/23 03:56:11;;;;;;;8.40;4.07;;;4.00;99.90;;;;;;5035524;28;20033;-74
2021/11/23 03:58:37;;;;;;;7.97;3.63;;;4.00;99.90;;;;;;5035768;28;20022;-74
2021/11/23 04:01:03;;;;;;;10.43;4.30;;;4.10;99.90;;;;;;5035400;28;20060;-71
2021/11/23 04:03:28;;;;;;;6.78;3.53;;;4.20;99.90;;;;;;5035444;28;20034;-74
2021/11/23 04:05:54;;;;;;;15.93;4.40;;;4.30;99.90;;;;;;5035393;28;20100;-72
2021/11/23 04:08:20;;;;;;;9.43;4.55;;;4.30;99.90;;;;;;5035255;28;20065;-72
2021/11/23 04:10:46;;;;;;;7.90;4.28;;;4.20;99.90;;;;;;5035549;28;20032;-73
2021/11/23 04:13:12;;;;;;;9.27;4.10;;;4.20;99.90;;;;;;5035312;28;20022;-75
2021/11/23 04:15:37;;;;;;;8.65;3.88;;;4.30;99.90;;;;;;5035310;28;20025;-75
2021/11/23 04:18:03;;;;;;;8.55;4.03;;;4.00;99.90;;;;;;5035185;28;20029;-74
2021/11/23 04:20:29;;;;;;;9.55;3.97;;;4.00;99.90;;;;;;5035398;28;20463;-75
2021/11/23 04:22:55;;;;;;;11.18;3.90;;;4.10;99.90;;;;;;5035616;28;20024;-72
2021/11/23 04:25:21;;;;;;;9.48;3.97;;;4.00;99.90;;;;;;5035062;28;20060;-74
2021/11/23 04:27:48;;;;;;;7.63;4.10;;;3.90;99.90;;;;;;5034891;28;20096;-73
2021/11/23 04:30:14;;;;;;;9.27;4.13;;;3.90;99.90;;;;;;5035200;28;20034;-74
2021/11/23 04:32:41;;;;;;;9.50;4.40;;;3.90;99.90;;;;;;5035177;28;20017;-74
2021/11/23 04:35:07;;;;;;;6.32;3.60;;;4.00;99.90;;;;;;5034847;28;20045;-75
2021/11/23 04:37:33;;;;;;;7.68;3.85;;;3.80;99.90;;;;;;5034781;28;20388;-73
2021/11/23 04:39:59;;;;;;;10.05;4.20;;;3.80;99.90;;;;;;5034702;28;20044;-72
2021/11/23 04:42:24;;;;;;;10.73;4.90;;;3.90;99.90;;;;;;5034979;28;20079;-74
2021/11/23 04:44:50;;;;;;;8.55;3.80;;;4.20;99.90;;;;;;5034904;28;20436;-73
2021/11/23 04:47:15;;;;;;;10.18;4.35;;;4.20;99.90;;;;;;5034614;28;20033;-72
2021/11/23 04:49:41;;;;;;;9.52;4.13;;;4.20;99.90;;;;;;5034484;28;20055;-72
2021/11/23 04:52:07;;;;;;;7.32;4.13;;;4.10;99.90;;;;;;5033231;28;20391;-74
2021/11/23 04:54:33;;;;;;;7.75;3.90;;;4.30;99.90;;;;;;5034720;28;20040;-73
2021/11/23 04:56:59;;;;;;;9.25;3.60;;;4.40;99.90;;;;;;5034346;28;20437;-72
2021/11/23 04:59:24;;;;;;;8.55;4.05;;;4.50;99.90;;;;;;5034695;28;20026;-72
2021/11/23 05:01:50;;;;;;;10.07;4.78;;;4.50;99.90;;;;;;5033900;28;20163;-72
2021/11/23 05:04:16;;;;;;;8.20;4.15;;;4.50;99.90;;;;;;5034780;28;20179;-75
2021/11/23 05:06:42;;;;;;;10.80;4.65;;;4.40;99.90;;;;;;5034526;28;20096;-74
2021/11/23 05:09:07;;;;;;;9.52;4.55;;;4.30;99.90;;;;;;5034322;28;20036;-74
2021/11/23 05:11:36;;;;;;;9.57;4.43;;;4.30;99.90;;;;;;5034159;28;20025;-72
2021/11/23 05:14:01;;;;;;;14.32;5.90;;;4.30;99.90;;;;;;5032811;28;20049;-72
2021/11/23 05:16:27;;;;;;;8.88;4.85;;;4.40;99.90;;;;;;5034026;28;20553;-75
2021/11/23 05:18:53;;;;;;;10.30;4.57;;;4.30;99.90;;;;;;5034263;28;20033;-73
2021/11/23 05:21:19;;;;;;;9.55;4.90;;;4.30;99.90;;;;;;5034005;28;20030;-75
2021/11/23 05:23:44;;;;;;;10.88;4.95;;;4.20;99.90;;;;;;5034148;28;20037;-74
2021/11/23 05:26:10;;;;;;;9.40;4.07;;;4.10;99.90;;;;;;5034171;28;20071;-75
2021/11/23 05:28:36;;;;;;;10.02;4.85;;;4.20;99.90;;;;;;5033759;28;20039;-72
2021/11/23 05:31:01;;;;;;;10.55;5.38;;;4.20;99.90;;;;;;5033806;28;20022;-75
2021/11/23 05:33:27;;;;;;;8.57;4.38;;;4.20;99.90;;;;;;5034256;28;20060;-74
2021/11/23 05:35:53;;;;;;;13.13;4.43;;;4.40;99.90;;;;;;5034245;28;20021;-73
2021/11/23 05:38:19;;;;;;;8.88;4.38;;;4.40;99.90;;;;;;5033973;28;20550;-74
2021/11/23 05:40:46;;;;;;;12.27;4.78;;;4.60;99.90;;;;;;5033637;28;20025;-74
2021/11/23 05:43:13;;;;;;;9.00;5.20;;;4.50;99.90;;;;;;5033640;28;20434;-72
2021/11/23 05:45:41;;;;;;;14.18;5.97;;;4.50;99.90;;;;;;5033593;28;20022;-72
2021/11/23 05:48:07;;;;;;;12.05;6.05;;;4.50;99.90;;;;;;5033478;28;20033;-73
2021/11/23 05:50:33;;;;;;;10.52;5.38;;;4.60;99.90;;;;;;5033498;28;20021;-74
2021/11/23 05:53:01;;;;;;;11.07;6.00;;;4.60;99.90;;;;;;5033442;28;20463;-74
2021/11/23 05:55:27;;;;;;;14.00;6.97;;;4.60;99.90;;;;;;5032184;28;20069;-73
2021/11/23 05:57:53;;;;;;;14.73;6.95;;;4.50;99.90;;;;;;5033324;28;20052;-73
2021/11/23 06:00:18;;;;;;;19.08;7.50;;;4.40;99.90;;;;;;5033355;28;20103;-73
2021/11/23 06:02:44;;;;;;;16.17;7.50;;;4.50;99.90;;;;;;5033618;28;20029;-74
2021/11/23 06:05:09;;;;;;;14.05;6.55;;;4.50;99.90;;;;;;5032895;28;20029;-74
2021/11/23 06:07:35;;;;;;;10.65;5.28;;;4.50;99.90;;;;;;5033505;28;20025;-74
2021/11/23 06:10:01;;;;;;;13.60;5.18;;;4.50;99.90;;;;;;5033441;28;20076;-76
2021/11/23 06:12:29;;;;;;;10.00;4.90;;;4.50;99.90;;;;;;5033461;28;20449;-73
2021/11/23 06:14:55;;;;;;;10.70;4.85;;;4.50;99.90;;;;;;5033189;28;20498;-75
2021/11/23 06:17:21;;;;;;;15.05;6.97;;;4.50;99.90;;;;;;5033417;28;20029;-73
2021/11/23 06:19:47;;;;;;;13.80;6.57;;;4.50;99.90;;;;;;5033137;28;20025;-73
2021/11/23 06:22:12;;;;;;;11.60;6.88;;;4.60;99.90;;;;;;5033128;28;20476;-74
2021/11/23 06:24:38;;;;;;;10.63;6.38;;;4.60;99.90;;;;;;5033341;28;20033;-74
2021/11/23 06:27:04;;;;;;;13.00;6.55;;;4.70;99.90;;;;;;5033123;28;20464;-75
2021/11/23 06:29:30;;;;;;;10.65;6.18;;;4.60;99.90;;;;;;5033026;28;20531;-74
2021/11/23 06:31:55;;;;;;;10.98;6.47;;;4.60;99.90;;;;;;5033029;28;20032;-74
2021/11/23 06:34:21;;;;;;;12.73;5.85;;;4.60;99.90;;;;;;5033019;28;20391;-74
2021/11/23 06:36:47;;;;;;;9.52;5.32;;;4.50;99.90;;;;;;5033535;28;20025;-72
2021/11/23 06:39:13;;;;;;;10.70;5.45;;;4.40;99.90;;;;;;5032949;28;20033;-71
2021/11/23 06:41:38;;;;;;;10.85;5.90;;;4.40;99.90;;;;;;5032953;28;20021;-73
2021/11/23 06:44:04;;;;;;;11.40;5.50;;;4.40;99.90;;;;;;5031621;28;20038;-72
2021/11/23 06:46:31;;;;;;;12.32;5.88;;;4.40;99.90;;;;;;5032899;28;20021;-72
2021/11/23 06:48:58;;;;;;;14.60;6.03;;;4.30;99.90;;;;;;5033051;28;20025;-73
2021/11/23 06:51:24;;;;;;;11.80;6.80;;;4.20;99.90;;;;;;5032896;28;20105;-73
2021/11/23 06:53:50;;;;;;;12.13;5.68;;;4.20;99.90;;;;;;5032865;28;20029;-73
2021/11/23 06:56:16;;;;;;;10.10;5.55;;;4.20;99.90;;;;;;5032795;28;20088;-73
2021/11/23 06:58:42;;;;;;;13.00;6.30;;;4.20;99.90;;;;;;5033009;28;20048;-74
2021/11/23 07:01:08;;;;;;;11.07;5.40;;;4.20;99.90;;;;;;5032572;28;20479;-73
2021/11/23 07:03:34;;;;;;;11.45;5.85;;;4.20;99.90;;;;;;5032964;28;20075;-74
2021/11/23 07:05:59;;;;;;;11.30;5.70;;;4.30;99.90;;;;;;5032708;28;20037;-72
2021/11/23 07:08:26;;;;;;;9.60;5.40;;;4.20;99.90;;;;;;5032887;28;20030;-73
2021/11/23 07:10:52;;;;;;;8.85;4.97;;;4.10;99.90;;;;;;5032719;28;20028;-73
2021/11/23 07:13:18;;;;;;;16.77;5.88;;;4.10;99.90;;;;;;5032630;28;20064;-74
2021/11/23 07:15:44;;;;;;;10.68;6.00;;;4.00;99.90;;;;;;5032628;28;20056;-76
2021/11/23 07:18:10;;;;;;;12.57;5.43;;;4.00;99.90;;;;;;5036321;28;20026;-72
2021/11/23 07:20:36;;;;;;;9.07;5.22;;;3.90;99.90;;;;;;5035202;28;20403;-74
2021/11/23 07:23:02;;;;;;;10.38;5.55;;;3.80;99.90;;;;;;5036169;28;20033;-73
2021/11/23 07:25:28;;;;;;;11.00;4.65;;;3.80;99.90;;;;;;5036184;28;20030;-72
2021/11/23 07:27:53;;;;;;;10.32;5.55;;;3.70;99.90;;;;;;5036278;28;20558;-72
2021/11/23 07:30:19;;;;;;;10.10;4.68;;;3.60;99.90;;;;;;5036049;28;20100;-75
2021/11/23 07:32:45;;;;;;;9.68;4.35;;;3.60;99.90;;;;;;5036282;28;20032;-74
2021/11/23 07:35:11;;;;;;;8.88;4.53;;;3.60;99.90;;;;;;5036048;28;20390;-75
2021/11/23 07:37:40;;;;;;;12.02;5.32;;;3.50;99.90;;;;;;5035978;28;20030;-74
2021/11/23 07:40:07;;;;;;;8.95;4.85;;;3.50;99.90;;;;;;5036145;28;20028;-73
2021/11/23 07:42:32;;;;;;;9.63;4.60;;;3.40;99.90;;;;;;5035783;28;20121;-72
2021/11/23 07:44:58;;;;;;;9.55;4.97;;;3.60;99.90;;;;;;5036073;28;20052;-75
2021/11/23 07:47:24;;;;;;;9.13;4.45;;;3.40;99.90;;;;;;5035769;28;20037;-74
2021/11/23 07:49:50;;;;;;;7.85;4.32;;;3.40;99.90;;;;;;5035736;28;20029;-75
2021/11/23 07:52:16;;;;;;;9.45;4.03;;;3.40;99.90;;;;;;5035935;28;20060;-74
2021/11/23 07:54:43;;;;;;;9.68;4.70;;;3.50;99.90;;;;;;5034557;28;20029;-76
2021/11/23 07:57:09;;;;;;;7.97;4.40;;;3.50;99.90;;;;;;5034904;28;20509;-74
2021/11/23 07:59:36;;;;;;;8.57;3.83;;;3.50;99.90;;;;;;5034746;28;20061;-73
2021/11/23 08:02:02;;;;;;;9.40;3.53;;;3.50;99.90;;;;;;5033873;28;20068;-73
2021/11/23 08:04:27;;;;;;;7.00;3.58;;;3.60;99.90;;;;;;5034237;28;20029;-77
2021/11/23 08:06:53;;;;;;;8.07;3.40;;;3.60;99.90;;;;;;5034653;28;20438;-75
2021/11/23 08:09:19;;;;;;;8.55;3.60;;;3.60;99.90;;;;;;5034743;28;20037;-75
2021/11/23 08:11:44;;;;;;;6.38;2.90;;;3.70;99.90;;;;;;5033161;28;20029;-75
2021/11/23 08:14:10;;;;;;;6.25;3.20;;;3.80;99.90;;;;;;5034771;28;20029;-78
2021/11/23 08:16:36;;;;;;;6.10;3.00;;;3.80;99.90;;;;;;5032335;28;21497;-74
2021/11/23 08:19:02;;;;;;;5.88;2.63;;;3.80;99.90;;;;;;5032085;28;20030;-74
2021/11/23 08:21:30;;;;;;;5.25;2.90;;;3.90;99.90;;;;;;5034039;28;20029;-76
2021/11/23 08:23:56;;;;;;;4.55;2.60;;;3.90;99.90;;;;;;5031673;28;20033;-76
2021/11/23 08:26:23;;;;;;;5.53;2.58;;;4.00;99.90;;;;;;5034544;28;20021;-75
2021/11/23 08:28:49;;;;;;;5.75;2.53;;;4.10;99.90;;;;;;5033479;28;20042;-75
2021/11/23 08:31:15;;;;;;;6.95;2.90;;;4.00;99.90;;;;;;5028404;28;20494;-76
2021/11/23 08:33:41;;;;;;;7.50;3.08;;;4.10;99.90;;;;;;5033448;28;20029;-75
2021/11/23 08:36:08;;;;;;;5.35;2.67;;;4.10;99.90;;;;;;5034182;28;20049;-77
2021/11/23 08:38:34;;;;;;;7.15;2.78;;;4.10;99.90;;;;;;5033946;28;20072;-75
2021/11/23 08:41:00;;;;;;;5.97;2.80;;;4.10;99.90;;;;;;5033313;28;20036;-74
2021/11/23 08:43:25;;;;;;;6.10;2.53;;;4.10;99.90;;;;;;5028217;28;20104;-75
2021/11/23 08:45:51;;;;;;;5.30;2.60;;;4.20;99.90;;;;;;5034800;28;20025;-76
2021/11/23 08:48:17;;;;;;;5.07;2.63;;;4.30;99.90;;;;;;5034385;28;20071;-74
2021/11/23 08:50:43;;;;;;;3.75;2.25;;;4.30;99.90;;;;;;5034054;28;20436;-76
2021/11/23 08:53:09;;;;;;;5.10;2.63;;;4.30;99.90;;;;;;5031609;28;20058;-74
2021/11/23 08:55:37;;;;;;;6.97;2.70;;;4.30;99.90;;;;;;5029646;28;20040;-75
2021/11/23 08:58:06;;;;;;;5.70;2.13;;;4.40;99.90;;;;;;5033220;28;20039;-74
2021/11/23 09:00:34;;;;;;;5.43;2.40;;;4.50;99.90;;;;;;5033690;28;20037;-75
2021/11/23 09:03:00;;;;;;;4.13;2.40;;;4.50;99.90;;;;;;5033377;28;20068;-73
2021/11/23 09:05:31;;;;;;;8.20;3.33;;;4.60;99.90;;;;;;5033700;28;20045;-74
2021/11/23 09:08:02;;;;;;;5.25;2.70;;;4.70;99.90;;;;;;5030130;28;20018;-75
2021/11/23 09:10:31;;;;;;;5.25;2.15;;;4.90;99.90;;;;;;5024788;28;20038;-77
2021/11/23 09:12:59;;;;;;;5.00;2.40;;;5.20;99.90;;;;;;5031530;28;20090;-76
2021/11/23 09:15:25;;;;;;;4.18;2.20;;;5.50;99.90;;;;;;5034344;28;20021;-78
2021/11/23 09:17:52;;;;;;;3.22;2.10;;;5.70;99.90;;;;;;5032365;28;20090;-74
2021/11/23 09:20:19;;;;;;;7.47;2.95;;;5.90;99.90;;;;;;5034013;28;20025;-76
2021/11/23 09:22:46;;;;;;;8.38;2.42;;;6.20;99.90;;;;;;5032709;28;20082;-71
2021/11/23 09:25:14;;;;;;;6.38;2.33;;;6.30;99.90;;;;;;5032853;28;20037;-78
2021/11/23 09:27:40;;;;;;;6.80;2.50;;;6.40;99.90;;;;;;5033141;28;20028;-76
2021/11/23 09:30:10;;;;;;;5.93;2.40;;;6.30;99.90;;;;;;5033535;28;20029;-73
2021/11/23 09:32:35;;;;;;;5.63;2.72;;;6.50;99.90;;;;;;5033385;28;20018;-73
2021/11/23 09:35:02;;;;;;;4.57;2.03;;;6.40;99.90;;;;;;5031375;28;20040;-74
2021/11/23 09:37:28;;;;;;;6.10;2.38;;;6.40;99.90;;;;;;5033358;28;20028;-73
2021/11/23 09:39:53;;;;;;;4.05;2.03;;;6.40;99.90;;;;;;5031291;28;20104;-74
2021/11/23 09:42:19;;;;;;;6.88;2.53;;;6.40;99.90;;;;;;5033723;28;20035;-76
2021/11/23 09:44:45;;;;;;;6.65;2.30;;;6.50;99.90;;;;;;5033282;28;20029;-74
2021/11/23 09:47:13;;;;;;;8.00;2.28;;;6.50;99.90;;;;;;5022263;28;20026;-76
2021/11/23 09:49:39;;;;;;;4.65;2.25;;;6.40;99.90;;;;;;5031347;28;20037;-74
2021/11/23 09:52:06;;;;;;;3.83;1.98;;;6.40;99.90;;;;;;5033148;28;20458;-74
2021/11/23 09:54:31;;;;;;;4.05;2.17;;;6.40;99.90;;;;;;5033483;28;20021;-78
2021/11/23 09:56:57;;;;;;;3.30;2.10;;;6.50;99.90;;;;;;5032594;28;20453;-76
2021/11/23 09:59:23;;;;;;;4.55;2.00;;;6.50;99.90;;;;;;5032771;28;20033;-76
2021/11/23 10:01:52;;;;;;;4.80;2.15;;;6.60;99.90;;;;;;5031711;28;20541;-77
2021/11/23 10:04:19;;;;;;;9.02;2.90;;;6.60;99.90;;;;;;5032172;28;20463;-76
2021/11/23 10:07:01;;;;;;;5.13;1.92;;;6.70;99.90;;;;;;5032439;28;20170;-77
2021/11/23 10:09:39;;;;;;;5.28;2.42;;;6.80;99.90;;;;;;5032889;28;20040;-78
2021/11/23 10:12:24;;;;;;;5.05;2.10;;;6.80;99.90;;;;;;5025818;28;20030;-74
2021/11/23 10:15:14;;;;;;;3.80;1.77;;;6.80;99.90;;;;;;5032396;28;20091;-79
2021/11/23 10:17:46;;;;;;;3.30;1.63;;;6.90;99.90;;;;;;5032761;28;20495;-78
2021/11/23 10:20:34;;;;;;;69.40;9.13;;;6.90;99.90;;;;;;5014239;28;20038;-77
2021/11/23 10:23:21;;;;;;;3.40;1.60;;;6.90;99.90;;;;;;5031330;28;20045;-77
2021/11/23 10:25:53;;;;;;;4.75;1.80;;;7.00;99.90;;;;;;5031642;28;20466;-75
2021/11/23 10:28:21;;;;;;;3.33;1.88;;;7.00;99.90;;;;;;5032655;28;20509;-76
2021/11/23 10:30:48;;;;;;;3.40;1.50;;;7.10;99.90;;;;;;5032884;28;20026;-78
2021/11/23 10:33:16;;;;;;;3.97;2.20;;;7.10;99.90;;;;;;5013938;28;20069;-75
2021/11/23 10:35:43;;;;;;;7.13;2.22;;;7.10;99.90;;;;;;5025156;28;20410;-76
2021/11/23 10:38:10;;;;;;;4.15;2.00;;;7.20;99.90;;;;;;5031559;28;20030;-74
2021/11/23 10:40:38;;;;;;;3.58;1.77;;;7.20;99.90;;;;;;5032592;28;20383;-77
2021/11/23 10:43:07;;;;;;;5.63;2.17;;;7.30;99.90;;;;;;5032445;28;20541;-76
2021/11/23 10:45:37;;;;;;;4.20;2.30;;;7.20;99.90;;;;;;5032769;28;20030;-76
2021/11/23 10:48:04;;;;;;;3.13;1.85;;;7.30;99.90;;;;;;5032479;28;20028;-75
2021/11/23 10:50:30;;;;;;;4.43;1.88;;;7.30;99.50;;;;;;5033937;28;20021;-76
2021/11/23 10:53:04;;;;;;;5.78;2.53;;;7.30;99.70;;;;;;5036532;28;20518;-77
2021/11/23 10:55:31;;;;;;;4.72;2.10;;;7.30;99.90;;;;;;5035035;28;20028;-78
2021/11/23 10:58:00;;;;;;;5.03;2.65;;;7.30;99.00;;;;;;5037033;28;20018;-79
2021/11/23 11:00:29;;;;;;;5.35;2.40;;;7.30;99.30;;;;;;5036179;28;20090;-78
2021/11/23 11:02:59;;;;;;;4.80;2.40;;;7.30;99.30;;;;;;5037326;28;20021;-74
2021/11/23 11:05:28;;;;;;;5.50;2.28;;;7.30;99.10;;;;;;5035698;28;20157;-75
2021/11/23 11:07:57;;;;;;;4.65;2.22;;;7.30;99.90;;;;;;5036462;28;20052;-77
2021/11/23 11:10:23;;;;;;;5.75;2.28;;;7.40;99.90;;;;;;5036603;28;20036;-76
2021/11/23 11:12:49;;;;;;;4.50;2.17;;;7.40;99.90;;;;;;5037104;28;20028;-80
2021/11/23 11:15:19;;;;;;;2.95;1.83;;;7.50;99.90;;;;;;5035548;28;20026;-76
2021/11/23 11:17:46;;;;;;;5.78;1.60;;;7.50;99.30;;;;;;5036482;28;20459;-78
2021/11/23 11:20:30;;;;;;;3.50;1.60;;;7.50;99.40;;;;;;5036331;28;20026;-77
2021/11/23 11:23:05;;;;;;;2.80;1.50;;;7.50;99.10;;;;;;5036518;28;20494;-76
2021/11/23 11:28:39;;;;;;;5.00;2.13;;;7.70;98.90;;;;;;4974654;28;20031;-73
2021/11/23 11:31:07;;;;;;;4.57;1.73;;;7.70;99.00;;;;;;5025726;28;20037;-72
2021/11/23 11:33:34;;;;;;;1.65;1.35;;;7.70;98.50;;;;;;5034318;28;20017;-70
2021/11/23 11:36:00;;;;;;;3.95;1.50;;;7.70;99.50;;;;;;5034916;28;20020;-71
2021/11/23 11:38:26;;;;;;;5.63;1.67;;;7.80;98.30;;;;;;5036132;28;20096;-70
2021/11/23 11:40:53;;;;;;;2.53;1.25;;;7.80;97.90;;;;;;5035978;28;20029;-71
2021/11/23 11:43:19;;;;;;;3.03;1.30;;;7.90;98.60;;;;;;5035907;28;20117;-72
2021/11/23 11:45:52;;;;;;;3.40;1.52;;;7.90;98.80;;;;;;5036083;28;20487;-72
2021/11/23 11:48:36;;;;;;;5.28;1.63;;;8.00;98.50;;;;;;5036023;28;20032;-70
2021/11/23 11:51:18;;;;;;;3.45;1.48;;;8.10;99.00;;;;;;5035676;28;20080;-71
2021/11/23 11:53:49;;;;;;;4.97;1.50;;;8.00;97.30;;;;;;5034135;28;20033;-71
2021/11/23 11:56:36;;;;;;;3.75;1.55;;;8.10;98.40;;;;;;5035636;28;20022;-72
2021/11/23 11:59:04;;;;;;;2.35;1.20;;;8.20;98.20;;;;;;5025592;28;20045;-69
2021/11/23 12:01:33;;;;;;;2.90;1.30;;;8.20;98.30;;;;;;5035218;28;20037;-73
2021/11/23 12:04:11;;;;;;;4.10;1.38;;;8.30;98.30;;;;;;5034955;28;20040;-71
2021/11/23 12:06:59;;;;;;;2.03;1.40;;;8.30;97.90;;;;;;5035702;28;20091;-71
2021/11/23 12:09:29;;;;;;;2.92;1.20;;;8.40;97.50;;;;;;5033813;28;20025;-72
2021/11/23 12:12:16;;;;;;;5.28;1.50;;;8.40;96.30;;;;;;5035310;28;20479;-71
2021/11/23 12:14:51;;;;;;;4.10;1.90;;;8.50;96.60;;;;;;5004269;28;20038;-71
2021/11/23 12:17:26;;;;;;;3.58;1.38;;;8.50;96.90;;;;;;5035235;28;20017;-72
2021/11/23 12:19:58;;;;;;;1.45;1.10;;;8.50;96.30;;;;;;5035253;28;20033;-71
2021/11/23 12:22:27;;;;;;;2.30;1.30;;;8.60;96.80;;;;;;5035701;28;20033;-72
2021/11/23 12:25:00;;;;;;;4.38;1.40;;;8.70;96.60;;;;;;5035100;28;20558;-71
2021/11/23 12:27:26;;;;;;;2.67;1.60;;;8.70;97.20;;;;;;5035127;28;20017;-70
2021/11/23 12:29:56;;;;;;;4.70;1.35;;;8.80;96.20;;;;;;5034935;28;20537;-70
2021/11/23 12:32:30;;;;;;;5.07;1.67;;;8.80;96.70;;;;;;5034981;28;20014;-71
2021/11/23 12:34:55;;;;;;;2.78;1.40;;;8.80;95.50;;;;;;5034911;28;20075;-72
2021/11/23 12:37:39;;;;;;;5.50;1.63;;;8.80;95.50;;;;;;5035122;28;20021;-69
2021/11/23 12:40:12;;;;;;;3.65;1.17;;;8.90;96.00;;;;;;5035370;28;20026;-69
2021/11/23 12:42:52;;;;;;;2.50;1.40;;;8.90;95.50;;;;;;5034764;28;20097;-72
2021/11/23 12:45:39;;;;;;;3.75;1.40;;;8.90;95.40;;;;;;5035265;28;20029;-72
2021/11/23 12:48:11;;;;;;;3.13;1.33;;;9.00;95.40;;;;;;5033148;28;20121;-71
2021/11/23 12:50:39;;;;;;;5.13;1.88;;;9.00;94.80;;;;;;5034870;28;20434;-70
2021/11/23 12:53:12;;;;;;;5.50;1.58;;;9.00;95.10;;;;;;5034512;28;20530;-69
2021/11/23 12:55:38;;;;;;;3.97;1.60;;;9.00;94.80;;;;;;5034482;28;20501;-70
2021/11/23 12:58:04;;;;;;;4.05;1.50;;;9.00;94.90;;;;;;5034371;28;20017;-71
2021/11/23 13:00:30;;;;;;;5.13;1.50;;;9.10;95.90;;;;;;5034179;28;20389;-71